createdAt,value
2023-01-09T00:00:46.443Z,981.52
2023-01-09T00:01:46.401Z,981.52
2023-01-09T00:02:46.469Z,981.52
2023-01-09T00:03:46.424Z,981.54
2023-01-09T00:04:46.381Z,981.56
2023-01-09T00:05:46.379Z,981.55
2023-01-09T00:06:46.360Z,981.56
2023-01-09T00:07:46.343Z,981.56
2023-01-09T00:08:46.351Z,981.58
2023-01-09T00:09:46.305Z,981.56
2023-01-09T00:10:46.361Z,981.53
2023-01-09T00:11:46.308Z,981.51
2023-01-09T00:12:46.284Z,981.50
2023-01-09T00:13:46.274Z,981.48
2023-01-09T00:14:46.283Z,981.44
2023-01-09T00:15:46.276Z,981.45
2023-01-09T00:16:46.402Z,981.40
2023-01-09T00:17:47.273Z,981.43
2023-01-09T00:18:46.781Z,981.44
2023-01-09T00:19:46.219Z,981.49
2023-01-09T00:20:46.245Z,981.50
2023-01-09T00:21:46.236Z,981.51
2023-01-09T00:22:46.180Z,981.54
2023-01-09T00:23:46.217Z,981.56
2023-01-09T00:24:46.215Z,981.56
2023-01-09T00:25:46.201Z,981.56
2023-01-09T00:26:46.166Z,981.55
2023-01-09T00:27:46.211Z,981.56
2023-01-09T00:28:46.123Z,981.55
2023-01-09T00:29:46.131Z,981.54
2023-01-09T00:30:46.204Z,981.56
2023-01-09T00:31:46.096Z,981.54
2023-01-09T00:32:46.084Z,981.54
2023-01-09T00:33:46.071Z,981.52
2023-01-09T00:34:46.073Z,981.52
2023-01-09T00:35:46.108Z,981.53
2023-01-09T00:36:46.049Z,981.53
2023-01-09T00:37:46.029Z,981.54
2023-01-09T00:38:46.037Z,981.49
2023-01-09T00:39:46.008Z,981.49
2023-01-09T00:40:46.045Z,981.50
2023-01-09T00:41:46.004Z,981.48
2023-01-09T00:42:45.991Z,981.46
2023-01-09T00:43:45.980Z,981.49
2023-01-09T00:44:46.013Z,981.50
2023-01-09T00:45:46.070Z,981.52
2023-01-09T00:46:45.944Z,981.56
2023-01-09T00:47:45.933Z,981.57
2023-01-09T00:48:45.941Z,981.63
2023-01-09T00:49:45.925Z,981.65
2023-01-09T00:50:45.905Z,981.66
2023-01-09T00:51:45.949Z,981.64
2023-01-09T00:52:46.079Z,981.69
2023-01-09T00:53:45.898Z,981.65
2023-01-09T00:54:46.067Z,981.66
2023-01-09T00:55:45.851Z,981.68
2023-01-09T00:56:46.031Z,981.66
2023-01-09T00:57:46.008Z,981.66
2023-01-09T00:58:45.831Z,981.68
2023-01-09T00:59:46.667Z,981.69
2023-01-09T01:00:45.805Z,981.68
2023-01-09T01:01:46.055Z,981.70
2023-01-09T01:02:45.824Z,981.68
2023-01-09T01:03:45.770Z,981.71
2023-01-09T01:04:46.028Z,981.71
2023-01-09T01:05:45.753Z,981.69
2023-01-09T01:06:46.184Z,981.68
2023-01-09T01:07:45.854Z,981.69
2023-01-09T01:08:45.724Z,981.69
2023-01-09T01:09:45.739Z,981.64
2023-01-09T01:10:45.772Z,981.66
2023-01-09T01:11:45.704Z,981.63
2023-01-09T01:12:45.673Z,981.64
2023-01-09T01:13:45.680Z,981.61
2023-01-09T01:14:45.658Z,981.58
2023-01-09T01:15:45.649Z,981.61
2023-01-09T01:16:45.682Z,981.61
2023-01-09T01:17:45.635Z,981.61
2023-01-09T01:18:45.615Z,981.62
2023-01-09T01:19:45.615Z,981.63
2023-01-09T01:20:45.593Z,981.63
2023-01-09T01:21:53.399Z,981.64
2023-01-09T01:22:45.603Z,981.63
2023-01-09T01:23:45.557Z,981.64
2023-01-09T01:24:45.553Z,981.68
2023-01-09T01:25:52.064Z,981.68
2023-01-09T01:26:53.432Z,981.65
2023-01-09T01:27:45.531Z,981.67
2023-01-09T01:28:45.518Z,981.64
2023-01-09T01:29:45.497Z,981.63
2023-01-09T01:30:45.549Z,981.60
2023-01-09T01:31:45.538Z,981.62
2023-01-09T01:32:45.486Z,981.59
2023-01-09T01:33:45.467Z,981.60
2023-01-09T01:34:47.536Z,981.59
2023-01-09T01:35:45.434Z,981.57
2023-01-09T01:36:45.469Z,981.58
2023-01-09T01:37:45.420Z,981.59
2023-01-09T01:38:45.450Z,981.60
2023-01-09T01:39:45.420Z,981.61
2023-01-09T01:40:45.388Z,981.62
2023-01-09T01:41:45.401Z,981.62
2023-01-09T01:42:45.377Z,981.62
2023-01-09T01:43:45.351Z,981.63
2023-01-09T01:44:45.344Z,981.66
2023-01-09T01:45:45.376Z,981.67
2023-01-09T01:46:45.361Z,981.68
2023-01-09T01:47:45.328Z,981.65
2023-01-09T01:48:45.305Z,981.66
2023-01-09T01:49:45.295Z,981.66
2023-01-09T01:50:45.292Z,981.67
2023-01-09T01:51:45.292Z,981.68
2023-01-09T01:52:45.275Z,981.69
2023-01-09T01:53:45.261Z,981.75
2023-01-09T01:54:45.246Z,981.77
2023-01-09T01:55:45.236Z,981.83
2023-01-09T01:56:45.252Z,981.87
2023-01-09T01:57:45.241Z,981.84
2023-01-09T01:58:45.210Z,981.85
2023-01-09T01:59:45.188Z,981.85
2023-01-09T02:00:45.174Z,981.83
2023-01-09T02:01:45.276Z,981.81
2023-01-09T02:02:45.235Z,981.82
2023-01-09T02:03:45.156Z,981.79
2023-01-09T02:04:45.134Z,981.81
2023-01-09T02:05:51.621Z,981.76
2023-01-09T02:06:53.991Z,981.77
2023-01-09T02:07:51.623Z,981.78
2023-01-09T02:08:51.615Z,981.80
2023-01-09T02:09:45.085Z,981.80
2023-01-09T02:10:45.077Z,981.79
2023-01-09T02:11:45.069Z,981.81
2023-01-09T02:12:45.109Z,981.81
2023-01-09T02:13:45.048Z,981.81
2023-01-09T02:14:45.043Z,981.82
2023-01-09T02:15:45.060Z,981.81
2023-01-09T02:16:45.025Z,981.81
2023-01-09T02:17:45.031Z,981.80
2023-01-09T02:18:44.996Z,981.79
2023-01-09T02:19:44.995Z,981.79
2023-01-09T02:20:44.978Z,981.78
2023-01-09T02:21:44.984Z,981.81
2023-01-09T02:22:44.971Z,981.83
2023-01-09T02:23:44.944Z,981.84
2023-01-09T02:24:44.948Z,981.86
2023-01-09T02:25:44.946Z,981.87
2023-01-09T02:26:44.911Z,981.88
2023-01-09T02:27:44.976Z,981.86
2023-01-09T02:28:44.896Z,981.83
2023-01-09T02:29:44.878Z,981.83
2023-01-09T02:30:44.878Z,981.83
2023-01-09T02:31:44.905Z,981.85
2023-01-09T02:32:44.884Z,981.86
2023-01-09T02:33:44.846Z,981.86
2023-01-09T02:34:44.836Z,981.87
2023-01-09T02:35:44.840Z,981.88
2023-01-09T02:36:44.806Z,981.88
2023-01-09T02:37:44.830Z,981.82
2023-01-09T02:38:44.789Z,981.85
2023-01-09T02:39:44.836Z,981.89
2023-01-09T02:40:44.768Z,981.89
2023-01-09T02:41:44.774Z,981.86
2023-01-09T02:42:44.765Z,981.87
2023-01-09T02:43:44.746Z,981.86
2023-01-09T02:44:44.726Z,981.83
2023-01-09T02:45:44.742Z,981.85
2023-01-09T02:46:44.713Z,981.85
2023-01-09T02:47:44.725Z,981.90
2023-01-09T02:48:44.707Z,981.90
2023-01-09T02:49:44.682Z,981.89
2023-01-09T02:50:44.665Z,981.96
2023-01-09T02:51:44.667Z,981.95
2023-01-09T02:52:44.668Z,981.96
2023-01-09T02:53:44.648Z,981.93
2023-01-09T02:54:44.648Z,981.92
2023-01-09T02:55:44.629Z,981.92
2023-01-09T02:56:44.609Z,981.88
2023-01-09T02:57:44.622Z,981.88
2023-01-09T02:58:44.582Z,981.90
2023-01-09T02:59:44.601Z,981.89
2023-01-09T03:00:44.621Z,981.90
2023-01-09T03:01:44.698Z,981.92
2023-01-09T03:02:44.639Z,981.93
2023-01-09T03:03:44.536Z,981.91
2023-01-09T03:04:44.601Z,981.90
2023-01-09T03:05:44.522Z,981.88
2023-01-09T03:06:44.498Z,981.87
2023-01-09T03:07:44.515Z,981.85
2023-01-09T03:08:44.490Z,981.85
2023-01-09T03:09:51.005Z,981.85
2023-01-09T03:10:50.950Z,981.87
2023-01-09T03:11:44.450Z,981.91
2023-01-09T03:12:44.467Z,981.93
2023-01-09T03:13:44.448Z,981.95
2023-01-09T03:14:44.436Z,981.94
2023-01-09T03:15:44.434Z,981.94
2023-01-09T03:16:44.397Z,981.96
2023-01-09T03:17:44.427Z,981.98
2023-01-09T03:18:44.385Z,982.02
2023-01-09T03:19:44.391Z,982.06
2023-01-09T03:20:44.356Z,982.09
2023-01-09T03:21:44.383Z,982.09
2023-01-09T03:22:44.361Z,982.09
2023-01-09T03:23:44.330Z,982.11
2023-01-09T03:24:44.337Z,982.12
2023-01-09T03:25:44.317Z,982.11
2023-01-09T03:26:44.296Z,982.08
2023-01-09T03:27:44.312Z,982.08
2023-01-09T03:28:44.312Z,982.12
2023-01-09T03:29:44.274Z,982.13
2023-01-09T03:30:44.272Z,982.17
2023-01-09T03:31:44.284Z,982.20
2023-01-09T03:32:44.264Z,982.22
2023-01-09T03:33:44.244Z,982.22
2023-01-09T03:34:44.226Z,982.20
2023-01-09T03:35:44.231Z,982.25
2023-01-09T03:36:44.195Z,982.26
2023-01-09T03:37:44.210Z,982.25
2023-01-09T03:38:44.204Z,982.30
2023-01-09T03:39:44.184Z,982.37
2023-01-09T03:40:44.161Z,982.38
2023-01-09T03:41:44.147Z,982.41
2023-01-09T03:42:44.178Z,982.43
2023-01-09T03:43:44.145Z,982.46
2023-01-09T03:44:44.123Z,982.49
2023-01-09T03:45:44.129Z,982.49
2023-01-09T03:46:44.111Z,982.54
2023-01-09T03:47:44.133Z,982.57
2023-01-09T03:48:44.085Z,982.59
2023-01-09T03:49:44.075Z,982.64
2023-01-09T03:50:44.067Z,982.64
2023-01-09T03:51:44.057Z,982.63
2023-01-09T03:52:44.061Z,982.62
2023-01-09T03:53:44.053Z,982.60
2023-01-09T03:54:44.053Z,982.62
2023-01-09T03:55:44.013Z,982.61
2023-01-09T03:56:44.006Z,982.61
2023-01-09T03:57:44.011Z,982.62
2023-01-09T03:58:44.004Z,982.62
2023-01-09T03:59:43.969Z,982.63
2023-01-09T04:00:43.973Z,982.66
2023-01-09T04:01:44.059Z,982.67
2023-01-09T04:02:43.939Z,982.66
2023-01-09T04:03:43.991Z,982.70
2023-01-09T04:04:43.960Z,982.66
2023-01-09T04:05:43.935Z,982.67
2023-01-09T04:06:43.902Z,982.70
2023-01-09T04:07:43.888Z,982.70
2023-01-09T04:08:43.912Z,982.74
2023-01-09T04:09:43.826Z,982.68
2023-01-09T04:10:43.857Z,982.75
2023-01-09T04:11:43.862Z,982.78
2023-01-09T04:12:43.845Z,982.77
2023-01-09T04:13:43.847Z,982.77
2023-01-09T04:14:43.827Z,982.74
2023-01-09T04:15:43.800Z,982.76
2023-01-09T04:16:43.848Z,982.73
2023-01-09T04:17:43.790Z,982.76
2023-01-09T04:18:43.834Z,982.76
2023-01-09T04:19:43.776Z,982.76
2023-01-09T04:20:43.759Z,982.77
2023-01-09T04:21:43.740Z,982.75
2023-01-09T04:22:43.762Z,982.70
2023-01-09T04:23:43.765Z,982.74
2023-01-09T04:24:43.737Z,982.73
2023-01-09T04:25:43.719Z,982.71
2023-01-09T04:26:43.709Z,982.71
2023-01-09T04:27:50.414Z,982.71
2023-01-09T04:28:50.181Z,982.72
2023-01-09T04:29:50.197Z,982.73
2023-01-09T04:30:50.158Z,982.75
2023-01-09T04:31:43.660Z,982.75
2023-01-09T04:32:43.659Z,982.76
2023-01-09T04:33:43.658Z,982.74
2023-01-09T04:34:43.621Z,982.73
2023-01-09T04:35:43.606Z,982.74
2023-01-09T04:36:43.595Z,982.72
2023-01-09T04:37:51.111Z,982.74
2023-01-09T04:38:43.613Z,982.75
2023-01-09T04:39:43.592Z,982.76
2023-01-09T04:40:43.555Z,982.79
2023-01-09T04:41:43.650Z,982.83
2023-01-09T04:42:43.540Z,982.83
2023-01-09T04:43:43.539Z,982.83
2023-01-09T04:44:43.527Z,982.86
2023-01-09T04:45:43.652Z,982.87
2023-01-09T04:46:43.488Z,982.88
2023-01-09T04:47:43.494Z,982.92
2023-01-09T04:48:43.497Z,982.91
2023-01-09T04:49:43.461Z,982.95
2023-01-09T04:50:43.472Z,982.96
2023-01-09T04:51:43.449Z,982.95
2023-01-09T04:52:43.463Z,982.97
2023-01-09T04:53:43.440Z,982.95
2023-01-09T04:54:43.425Z,982.98
2023-01-09T04:55:43.404Z,982.98
2023-01-09T04:56:43.398Z,982.98
2023-01-09T04:57:43.382Z,983.00
2023-01-09T04:58:43.408Z,983.02
2023-01-09T04:59:43.387Z,983.00
2023-01-09T05:00:43.359Z,983.03
2023-01-09T05:01:43.484Z,983.03
2023-01-09T05:02:43.341Z,983.02
2023-01-09T05:03:43.360Z,983.03
2023-01-09T05:04:43.324Z,983.08
2023-01-09T05:05:43.296Z,983.06
2023-01-09T05:06:43.301Z,983.09
2023-01-09T05:07:43.290Z,983.11
2023-01-09T05:08:43.275Z,983.10
2023-01-09T05:09:43.287Z,983.10
2023-01-09T05:10:43.263Z,983.14
2023-01-09T05:11:43.242Z,983.17
2023-01-09T05:12:43.244Z,983.16
2023-01-09T05:13:43.220Z,983.16
2023-01-09T05:14:43.231Z,983.10
2023-01-09T05:15:43.213Z,983.09
2023-01-09T05:16:43.271Z,983.13
2023-01-09T05:17:43.178Z,983.17
2023-01-09T05:18:43.174Z,983.21
2023-01-09T05:19:43.177Z,983.18
2023-01-09T05:20:43.147Z,983.20
2023-01-09T05:21:43.147Z,983.22
2023-01-09T05:22:43.137Z,983.19
2023-01-09T05:23:43.148Z,983.20
2023-01-09T05:24:43.138Z,983.23
2023-01-09T05:25:43.099Z,983.23
2023-01-09T05:26:43.091Z,983.28
2023-01-09T05:27:43.080Z,983.32
2023-01-09T05:28:43.080Z,983.34
2023-01-09T05:29:43.081Z,983.37
2023-01-09T05:30:43.054Z,983.39
2023-01-09T05:31:43.113Z,983.41
2023-01-09T05:32:43.033Z,983.38
2023-01-09T05:33:43.020Z,983.44
2023-01-09T05:34:43.043Z,983.40
2023-01-09T05:35:49.483Z,983.49
2023-01-09T05:36:42.998Z,983.43
2023-01-09T05:37:49.471Z,983.46
2023-01-09T05:38:49.464Z,983.41
2023-01-09T05:39:50.637Z,983.46
2023-01-09T05:40:49.432Z,983.45
2023-01-09T05:41:42.932Z,983.41
2023-01-09T05:42:42.929Z,983.40
2023-01-09T05:43:42.923Z,983.40
2023-01-09T05:44:42.934Z,983.40
2023-01-09T05:45:42.923Z,983.41
2023-01-09T05:46:42.901Z,983.38
2023-01-09T05:47:42.866Z,983.41
2023-01-09T05:48:42.864Z,983.40
2023-01-09T05:49:42.874Z,983.39
2023-01-09T05:50:42.900Z,983.38
2023-01-09T05:51:42.841Z,983.36
2023-01-09T05:52:42.831Z,983.37
2023-01-09T05:53:42.813Z,983.38
2023-01-09T05:54:42.835Z,983.38
2023-01-09T05:55:42.794Z,983.39
2023-01-09T05:56:42.819Z,983.38
2023-01-09T05:57:42.781Z,983.39
2023-01-09T05:58:42.765Z,983.40
2023-01-09T05:59:42.768Z,983.40
2023-01-09T06:00:42.752Z,983.41
2023-01-09T06:01:42.814Z,983.37
2023-01-09T06:02:42.866Z,983.38
2023-01-09T06:03:42.725Z,983.42
2023-01-09T06:04:42.725Z,983.41
2023-01-09T06:05:42.689Z,983.43
2023-01-09T06:06:42.676Z,983.41
2023-01-09T06:07:42.683Z,983.39
2023-01-09T06:08:42.657Z,983.40
2023-01-09T06:09:42.674Z,983.35
2023-01-09T06:10:42.651Z,983.37
2023-01-09T06:11:42.653Z,983.37
2023-01-09T06:12:42.615Z,983.36
2023-01-09T06:13:42.625Z,983.37
2023-01-09T06:14:42.641Z,983.33
2023-01-09T06:15:42.685Z,983.35
2023-01-09T06:16:42.593Z,983.35
2023-01-09T06:17:42.606Z,983.33
2023-01-09T06:18:42.575Z,983.33
2023-01-09T06:19:42.592Z,983.31
2023-01-09T06:20:42.542Z,983.30
2023-01-09T06:21:42.528Z,983.30
2023-01-09T06:22:42.517Z,983.32
2023-01-09T06:23:42.525Z,983.30
2023-01-09T06:24:42.514Z,983.29
2023-01-09T06:25:42.515Z,983.33
2023-01-09T06:26:42.485Z,983.31
2023-01-09T06:27:42.491Z,983.31
2023-01-09T06:28:44.551Z,983.31
2023-01-09T06:29:42.450Z,983.28
2023-01-09T06:30:42.474Z,983.30
2023-01-09T06:31:42.435Z,983.30
2023-01-09T06:32:42.421Z,983.31
2023-01-09T06:33:42.409Z,983.29
2023-01-09T06:34:42.427Z,983.34
2023-01-09T06:35:42.416Z,983.34
2023-01-09T06:36:42.377Z,983.34
2023-01-09T06:37:42.376Z,983.34
2023-01-09T06:38:42.353Z,983.33
2023-01-09T06:39:42.349Z,983.34
2023-01-09T06:40:42.410Z,983.32
2023-01-09T06:41:42.328Z,983.31
2023-01-09T06:42:42.313Z,983.35
2023-01-09T06:43:42.318Z,983.32
2023-01-09T06:44:42.289Z,983.37
2023-01-09T06:45:42.339Z,983.35
2023-01-09T06:46:42.278Z,983.37
2023-01-09T06:47:42.297Z,983.37
2023-01-09T06:48:42.252Z,983.37
2023-01-09T06:49:48.757Z,983.36
2023-01-09T06:50:50.191Z,983.38
2023-01-09T06:51:48.741Z,983.38
2023-01-09T06:52:48.711Z,983.37
2023-01-09T06:53:42.219Z,983.41
2023-01-09T06:54:42.199Z,983.41
2023-01-09T06:55:42.241Z,983.36
2023-01-09T06:56:42.201Z,983.41
2023-01-09T06:57:42.169Z,983.43
2023-01-09T06:58:42.163Z,983.43
2023-01-09T06:59:42.187Z,983.44
2023-01-09T07:00:42.149Z,983.43
2023-01-09T07:01:42.281Z,983.44
2023-01-09T07:02:42.109Z,983.48
2023-01-09T07:03:42.146Z,983.43
2023-01-09T07:04:42.110Z,983.42
2023-01-09T07:05:42.118Z,983.39
2023-01-09T07:06:42.069Z,983.42
2023-01-09T07:07:42.105Z,983.39
2023-01-09T07:08:42.021Z,983.40
2023-01-09T07:09:41.992Z,983.36
2023-01-09T07:10:42.049Z,983.38
2023-01-09T07:11:41.999Z,983.38
2023-01-09T07:12:41.959Z,983.37
2023-01-09T07:13:41.966Z,983.39
2023-01-09T07:14:41.978Z,983.40
2023-01-09T07:15:42.205Z,983.39
2023-01-09T07:16:41.952Z,983.37
2023-01-09T07:17:41.921Z,983.35
2023-01-09T07:18:41.900Z,983.36
2023-01-09T07:19:42.078Z,983.36
2023-01-09T07:20:41.918Z,983.35
2023-01-09T07:21:41.881Z,983.35
2023-01-09T07:22:41.860Z,983.34
2023-01-09T07:23:41.869Z,983.37
2023-01-09T07:24:41.858Z,983.38
2023-01-09T07:25:41.863Z,983.37
2023-01-09T07:26:43.342Z,983.37
2023-01-09T07:27:41.840Z,983.31
2023-01-09T07:28:41.793Z,983.32
2023-01-09T07:29:41.795Z,983.31
2023-01-09T07:30:41.810Z,983.38
2023-01-09T07:31:41.857Z,983.41
2023-01-09T07:32:41.771Z,983.42
2023-01-09T07:33:41.782Z,983.43
2023-01-09T07:34:41.745Z,983.44
2023-01-09T07:35:41.766Z,983.43
2023-01-09T07:36:41.711Z,983.46
2023-01-09T07:37:41.755Z,983.43
2023-01-09T07:38:41.696Z,983.45
2023-01-09T07:39:41.689Z,983.45
2023-01-09T07:40:41.707Z,983.45
2023-01-09T07:41:41.675Z,983.47
2023-01-09T07:42:41.684Z,983.47
2023-01-09T07:43:41.679Z,983.50
2023-01-09T07:44:41.657Z,983.48
2023-01-09T07:45:41.672Z,983.47
2023-01-09T07:46:41.699Z,983.49
2023-01-09T07:47:41.609Z,983.48
2023-01-09T07:48:41.588Z,983.51
2023-01-09T07:49:41.586Z,983.52
2023-01-09T07:50:49.731Z,983.49
2023-01-09T07:51:41.580Z,983.48
2023-01-09T07:52:41.561Z,983.48
2023-01-09T07:53:49.360Z,983.47
2023-01-09T07:54:41.587Z,983.45
2023-01-09T07:55:41.538Z,983.42
2023-01-09T07:56:41.528Z,983.47
2023-01-09T07:57:41.545Z,983.49
2023-01-09T07:58:41.507Z,983.51
2023-01-09T07:59:41.492Z,983.48
2023-01-09T08:00:41.493Z,983.50
2023-01-09T08:01:41.679Z,983.50
2023-01-09T08:02:41.531Z,983.50
2023-01-09T08:03:41.487Z,983.51
2023-01-09T08:04:41.444Z,983.52
2023-01-09T08:05:41.456Z,983.55
2023-01-09T08:06:41.458Z,983.56
2023-01-09T08:07:41.458Z,983.54
2023-01-09T08:08:41.492Z,983.55
2023-01-09T08:09:41.410Z,983.59
2023-01-09T08:10:41.402Z,983.54
2023-01-09T08:11:41.403Z,983.56
2023-01-09T08:12:41.405Z,983.53
2023-01-09T08:13:41.383Z,983.53
2023-01-09T08:14:41.363Z,983.51
2023-01-09T08:15:41.337Z,983.52
2023-01-09T08:16:41.337Z,983.53
2023-01-09T08:17:41.333Z,983.50
2023-01-09T08:18:41.334Z,983.54
2023-01-09T08:19:41.313Z,983.52
2023-01-09T08:20:41.302Z,983.54
2023-01-09T08:21:41.309Z,983.54
2023-01-09T08:22:41.280Z,983.55
2023-01-09T08:23:41.346Z,983.51
2023-01-09T08:24:41.274Z,983.49
2023-01-09T08:25:41.257Z,983.49
2023-01-09T08:26:41.244Z,983.51
2023-01-09T08:27:41.230Z,983.50
2023-01-09T08:28:48.783Z,983.52
2023-01-09T08:29:47.686Z,983.53
2023-01-09T08:30:41.179Z,983.55
2023-01-09T08:31:41.219Z,983.55
2023-01-09T08:32:41.223Z,983.57
2023-01-09T08:33:41.149Z,983.58
2023-01-09T08:34:41.153Z,983.56
2023-01-09T08:35:41.138Z,983.59
2023-01-09T08:36:41.135Z,983.60
2023-01-09T08:37:41.102Z,983.56
2023-01-09T08:38:41.127Z,983.61
2023-01-09T08:39:41.108Z,983.60
2023-01-09T08:40:41.094Z,983.58
2023-01-09T08:41:41.096Z,983.63
2023-01-09T08:42:41.052Z,983.57
2023-01-09T08:43:41.044Z,983.59
2023-01-09T08:44:41.031Z,983.59
2023-01-09T08:45:41.053Z,983.59
2023-01-09T08:46:41.098Z,983.63
2023-01-09T08:47:41.011Z,983.62
2023-01-09T08:48:40.991Z,983.62
2023-01-09T08:49:41.048Z,983.64
2023-01-09T08:50:40.973Z,983.65
2023-01-09T08:51:40.983Z,983.65
2023-01-09T08:52:40.992Z,983.66
2023-01-09T08:53:40.953Z,983.66
2023-01-09T08:54:41.010Z,983.69
2023-01-09T08:55:40.934Z,983.68
2023-01-09T08:56:40.924Z,983.56
2023-01-09T08:57:40.921Z,983.64
2023-01-09T08:58:40.902Z,983.55
2023-01-09T08:59:40.894Z,983.60
2023-01-09T09:00:40.867Z,983.59
2023-01-09T09:01:40.903Z,983.69
2023-01-09T09:02:40.889Z,983.70
2023-01-09T09:03:40.841Z,983.76
2023-01-09T09:04:40.872Z,983.75
2023-01-09T09:05:40.839Z,983.81
2023-01-09T09:06:40.815Z,983.74
2023-01-09T09:07:40.823Z,983.80
2023-01-09T09:08:40.790Z,983.80
2023-01-09T09:09:40.795Z,983.75
2023-01-09T09:10:40.799Z,983.71
2023-01-09T09:11:47.262Z,983.72
2023-01-09T09:12:48.322Z,983.72
2023-01-09T09:13:40.736Z,983.68
2023-01-09T09:14:40.732Z,983.66
2023-01-09T09:15:40.787Z,983.66
2023-01-09T09:16:40.707Z,983.67
2023-01-09T09:17:40.747Z,983.71
2023-01-09T09:18:40.686Z,983.64
2023-01-09T09:19:40.694Z,983.75
2023-01-09T09:20:40.687Z,983.72
2023-01-09T09:21:40.662Z,983.67
2023-01-09T09:22:40.684Z,983.68
2023-01-09T09:23:40.670Z,983.67
2023-01-09T09:24:40.628Z,983.68
2023-01-09T09:25:40.629Z,983.72
2023-01-09T09:26:41.090Z,983.68
2023-01-09T09:27:40.659Z,983.74
2023-01-09T09:28:40.601Z,983.73
2023-01-09T09:29:40.577Z,983.73
2023-01-09T09:30:40.571Z,983.75
2023-01-09T09:31:40.565Z,983.68
2023-01-09T09:32:40.607Z,983.64
2023-01-09T09:33:40.538Z,983.66
2023-01-09T09:34:40.529Z,983.75
2023-01-09T09:35:40.529Z,983.65
2023-01-09T09:36:40.575Z,983.71
2023-01-09T09:37:40.542Z,983.77
2023-01-09T09:38:40.485Z,983.77
2023-01-09T09:39:40.517Z,983.78
2023-01-09T09:40:40.469Z,983.81
2023-01-09T09:41:40.465Z,983.88
2023-01-09T09:42:40.467Z,983.86
2023-01-09T09:43:42.571Z,983.78
2023-01-09T09:44:43.713Z,983.87
2023-01-09T09:45:40.422Z,983.85
2023-01-09T09:46:40.432Z,983.84
2023-01-09T09:47:40.420Z,983.86
2023-01-09T09:48:40.407Z,983.90
2023-01-09T09:49:40.385Z,983.88
2023-01-09T09:50:40.371Z,983.88
2023-01-09T09:51:40.364Z,983.89
2023-01-09T09:52:40.338Z,983.91
2023-01-09T09:53:40.384Z,983.98
2023-01-09T09:54:40.329Z,983.90
2023-01-09T09:55:40.381Z,983.96
2023-01-09T09:56:40.297Z,983.92
2023-01-09T09:57:40.297Z,983.91
2023-01-09T09:58:40.312Z,983.98
2023-01-09T09:59:40.292Z,983.94
2023-01-09T10:00:40.325Z,983.94
2023-01-09T10:01:40.275Z,983.93
2023-01-09T10:02:40.344Z,983.95
2023-01-09T10:03:40.338Z,983.93
2023-01-09T10:04:40.225Z,984.02
2023-01-09T10:05:40.240Z,984.00
2023-01-09T10:06:40.216Z,984.03
2023-01-09T10:07:40.594Z,984.01
2023-01-09T10:08:47.828Z,984.07
2023-01-09T10:09:46.694Z,983.99
2023-01-09T10:10:46.701Z,984.09
2023-01-09T10:11:46.683Z,984.10
2023-01-09T10:12:46.648Z,984.10
2023-01-09T10:13:47.907Z,984.11
2023-01-09T10:14:46.623Z,984.16
2023-01-09T10:15:47.942Z,984.09
2023-01-09T10:16:40.111Z,984.15
2023-01-09T10:17:40.099Z,984.09
2023-01-09T10:18:40.129Z,984.10
2023-01-09T10:19:40.080Z,984.04
2023-01-09T10:20:40.091Z,984.11
2023-01-09T10:21:40.066Z,984.05
2023-01-09T10:22:40.096Z,984.06
2023-01-09T10:23:40.051Z,984.15
2023-01-09T10:24:40.031Z,984.13
2023-01-09T10:25:40.043Z,984.12
2023-01-09T10:26:40.022Z,984.12
2023-01-09T10:27:40.005Z,984.10
2023-01-09T10:28:40.067Z,984.05
2023-01-09T10:29:41.569Z,984.06
2023-01-09T10:30:39.992Z,984.06
2023-01-09T10:31:40.065Z,984.06
2023-01-09T10:32:39.946Z,984.08
2023-01-09T10:33:39.983Z,984.08
2023-01-09T10:34:39.918Z,984.10
2023-01-09T10:35:47.794Z,984.14
2023-01-09T10:36:39.971Z,984.08
2023-01-09T10:37:39.899Z,984.08
2023-01-09T10:38:39.906Z,984.12
2023-01-09T10:39:39.886Z,984.11
2023-01-09T10:40:39.874Z,984.13
2023-01-09T10:41:39.847Z,984.07
2023-01-09T10:42:39.857Z,984.09
2023-01-09T10:43:39.843Z,984.08
2023-01-09T10:44:39.836Z,984.13
2023-01-09T10:45:39.819Z,984.14
2023-01-09T10:46:39.822Z,984.10
2023-01-09T10:47:39.780Z,984.18
2023-01-09T10:48:39.829Z,984.13
2023-01-09T10:49:39.783Z,984.20
2023-01-09T10:50:39.766Z,984.16
2023-01-09T10:51:39.819Z,984.15
2023-01-09T10:52:46.283Z,984.21
2023-01-09T10:53:39.800Z,984.19
2023-01-09T10:54:39.736Z,984.25
2023-01-09T10:55:39.709Z,984.27
2023-01-09T10:56:39.704Z,984.19
2023-01-09T10:57:39.708Z,984.25
2023-01-09T10:58:39.744Z,984.31
2023-01-09T10:59:39.685Z,984.27
2023-01-09T11:00:39.670Z,984.27
2023-01-09T11:01:39.647Z,984.35
2023-01-09T11:02:39.766Z,984.32
2023-01-09T11:03:39.716Z,984.30
2023-01-09T11:04:39.614Z,984.32
2023-01-09T11:05:39.597Z,984.33
2023-01-09T11:06:39.598Z,984.42
2023-01-09T11:07:39.599Z,984.42
2023-01-09T11:08:39.578Z,984.47
2023-01-09T11:09:39.583Z,984.38
2023-01-09T11:10:39.586Z,984.43
2023-01-09T11:11:39.538Z,984.38
2023-01-09T11:12:39.547Z,984.42
2023-01-09T11:13:39.524Z,984.46
2023-01-09T11:14:39.543Z,984.38
2023-01-09T11:15:39.506Z,984.46
2023-01-09T11:16:39.495Z,984.45
2023-01-09T11:17:39.507Z,984.45
2023-01-09T11:18:39.489Z,984.38
2023-01-09T11:19:39.516Z,984.41
2023-01-09T11:20:39.449Z,984.44
2023-01-09T11:21:39.470Z,984.46
2023-01-09T11:22:39.439Z,984.48
2023-01-09T11:23:39.420Z,984.43
2023-01-09T11:24:39.437Z,984.49
2023-01-09T11:25:39.399Z,984.48
2023-01-09T11:26:39.437Z,984.50
2023-01-09T11:27:39.383Z,984.48
2023-01-09T11:28:39.398Z,984.50
2023-01-09T11:29:39.396Z,984.59
2023-01-09T11:30:39.362Z,984.54
2023-01-09T11:31:39.383Z,984.57
2023-01-09T11:32:39.329Z,984.51
2023-01-09T11:33:39.324Z,984.60
2023-01-09T11:34:46.978Z,984.52
2023-01-09T11:35:45.806Z,984.51
2023-01-09T11:36:39.311Z,984.54
2023-01-09T11:37:39.276Z,984.55
2023-01-09T11:38:39.280Z,984.58
2023-01-09T11:39:39.276Z,984.61
2023-01-09T11:40:39.255Z,984.56
2023-01-09T11:41:39.235Z,984.60
2023-01-09T11:42:39.260Z,984.60
2023-01-09T11:43:39.229Z,984.60
2023-01-09T11:44:39.282Z,984.63
2023-01-09T11:45:39.230Z,984.66
2023-01-09T11:46:39.206Z,984.62
2023-01-09T11:47:39.176Z,984.66
2023-01-09T11:48:39.172Z,984.68
2023-01-09T11:49:39.180Z,984.70
2023-01-09T11:50:39.212Z,984.72
2023-01-09T11:51:39.143Z,984.67
2023-01-09T11:52:39.142Z,984.67
2023-01-09T11:53:39.164Z,984.67
2023-01-09T11:54:39.134Z,984.66
2023-01-09T11:55:42.680Z,984.73
2023-01-09T11:56:39.142Z,984.69
2023-01-09T11:57:39.073Z,984.73
2023-01-09T11:58:39.089Z,984.73
2023-01-09T11:59:39.075Z,984.69
2023-01-09T12:00:39.096Z,984.68
2023-01-09T12:01:39.057Z,984.70
2023-01-09T12:02:39.032Z,984.72
2023-01-09T12:03:39.012Z,984.73
2023-01-09T12:04:38.997Z,984.77
2023-01-09T12:05:39.035Z,984.75
2023-01-09T12:06:38.988Z,984.80
2023-01-09T12:07:38.964Z,984.78
2023-01-09T12:08:38.985Z,984.87
2023-01-09T12:09:38.954Z,984.86
2023-01-09T12:10:38.958Z,984.83
2023-01-09T12:11:38.939Z,984.81
2023-01-09T12:12:38.947Z,984.88
2023-01-09T12:13:38.967Z,984.90
2023-01-09T12:14:38.923Z,984.93
2023-01-09T12:15:38.906Z,984.91
2023-01-09T12:16:38.918Z,984.93
2023-01-09T12:17:38.890Z,984.95
2023-01-09T12:18:38.871Z,984.95
2023-01-09T12:19:38.866Z,984.95
2023-01-09T12:20:38.869Z,984.95
2023-01-09T12:21:38.843Z,984.93
2023-01-09T12:22:38.867Z,984.97
2023-01-09T12:23:38.806Z,984.95
2023-01-09T12:24:38.808Z,984.99
2023-01-09T12:25:38.783Z,985.05
2023-01-09T12:26:38.773Z,984.99
2023-01-09T12:27:38.797Z,984.99
2023-01-09T12:28:38.792Z,985.02